createdAt,value
2023-01-20T00:06:28.473Z,99279.30
2023-01-20T00:16:32.937Z,99284.14
2023-01-20T00:26:36.687Z,99284.02
2023-01-20T00:36:40.722Z,99294.42
2023-01-20T00:46:46.388Z,99302.27
2023-01-20T00:56:50.204Z,99319.55
2023-01-20T01:06:54.224Z,99331.38
2023-01-20T01:16:57.985Z,99345.27
2023-01-20T01:27:01.667Z,99345.17
2023-01-20T01:37:05.392Z,99346.63
2023-01-20T01:47:10.345Z,99357.02
2023-01-20T01:57:14.255Z,99364.16
2023-01-20T02:07:21.694Z,99374.58
2023-01-20T02:17:34.211Z,99387.38
2023-01-20T02:27:56.563Z,99399.70
2023-01-20T02:38:15.627Z,99414.15
2023-01-20T02:48:19.445Z,99412.43
2023-01-20T02:58:40.680Z,99414.39
2023-01-20T03:08:46.590Z,99422.11
2023-01-20T03:18:51.871Z,99428.55
2023-01-20T03:28:56.059Z,99428.46
2023-01-20T03:39:00.787Z,99427.20
2023-01-20T03:49:23.189Z,99447.65
2023-01-20T03:59:27.989Z,99459.87
2023-01-20T04:09:47.760Z,99465.24
2023-01-20T04:19:51.668Z,99476.63
2023-01-20T04:29:55.501Z,99489.94
2023-01-20T04:39:59.556Z,99496.33
2023-01-20T04:50:09.104Z,99505.86
2023-01-20T05:00:18.825Z,99516.30
2023-01-20T05:10:22.822Z,99516.46
2023-01-20T05:20:26.705Z,99521.70
2023-01-20T05:30:30.510Z,99535.36
2023-01-20T05:40:35.535Z,99539.11
2023-01-20T05:50:39.319Z,99549.79
2023-01-20T06:00:43.102Z,99574.96
2023-01-20T06:10:50.580Z,99600.88
2023-01-20T06:20:59.124Z,99620.62
2023-01-20T06:31:05.916Z,99636.46
2023-01-20T06:41:11.519Z,99656.27
2023-01-20T06:51:17.918Z,99681.91
2023-01-20T07:01:27.444Z,99700.02
2023-01-20T07:11:31.757Z,99720.59
2023-01-20T07:21:35.528Z,99753.33
2023-01-20T07:31:40.661Z,99787.70
2023-01-20T07:41:49.103Z,99818.64
2023-01-20T07:51:52.910Z,99839.77
2023-01-20T08:01:57.051Z,99853.02
2023-01-20T08:12:02.464Z,99855.19
2023-01-20T08:22:07.254Z,99855.61
2023-01-20T08:32:11.001Z,99855.52
2023-01-20T08:42:14.835Z,99853.36
2023-01-20T08:52:19.218Z,99871.65
2023-01-20T09:02:24.978Z,99889.91
2023-01-20T09:12:28.750Z,99886.83
2023-01-20T09:22:34.385Z,99881.33
2023-01-20T09:32:38.624Z,99886.02
2023-01-20T09:43:14.968Z,99898.95
2023-01-20T09:53:26.015Z,99905.30
2023-01-20T10:03:42.494Z,99911.58
2023-01-20T10:13:56.634Z,99899.48
2023-01-20T10:24:29.754Z,99915.42
2023-01-20T10:34:54.918Z,99924.65
2023-01-20T10:45:01.228Z,99941.31
2023-01-20T10:55:22.217Z,99953.28
2023-01-20T11:05:30.859Z,99955.41
2023-01-20T11:15:38.540Z,99967.45
2023-01-20T11:25:55.538Z,99991.86
2023-01-20T11:36:01.102Z,100005.02
2023-01-20T11:46:30.291Z,100020.98
2023-01-20T11:56:43.066Z,100017.47
2023-01-20T12:07:05.816Z,100018.25
2023-01-20T12:17:31.938Z,100016.64
2023-01-20T12:27:53.852Z,100027.30
2023-01-20T12:38:06.447Z,100042.02
2023-01-20T12:48:25.579Z,100060.21
2023-01-20T12:58:44.357Z,100080.08
2023-01-20T13:09:23.255Z,100107.73
2023-01-20T13:19:49.724Z,100124.23
2023-01-20T13:29:59.089Z,100138.27
2023-01-20T13:40:06.006Z,100149.23
2023-01-20T13:50:24.148Z,100149.14
2023-01-20T14:00:27.906Z,100154.52
2023-01-20T14:10:31.617Z,100159.33
2023-01-20T14:20:37.940Z,100163.68
2023-01-20T14:30:41.865Z,100177.34
2023-01-20T14:40:51.775Z,100195.50
2023-01-20T14:50:57.105Z,100193.18
2023-01-20T15:01:06.977Z,100197.95
2023-01-20T15:11:17.301Z,100204.80
2023-01-20T15:21:28.323Z,100204.49
2023-01-20T15:31:32.188Z,100231.11
2023-01-20T15:41:36.306Z,100245.20
2023-01-20T15:51:40.754Z,100267.76
2023-01-20T16:01:50.401Z,100283.64
2023-01-20T16:11:54.779Z,100301.08
2023-01-20T16:21:58.853Z,100311.61
2023-01-20T16:32:04.819Z,100334.00
2023-01-20T16:42:16.230Z,100355.73
2023-01-20T16:52:20.137Z,100376.15
2023-01-20T17:02:24.585Z,100384.08
2023-01-20T17:12:28.617Z,100401.14
2023-01-20T17:22:32.940Z,100413.52
2023-01-20T17:32:39.547Z,100434.71
2023-01-20T17:42:44.473Z,100439.23
2023-01-20T17:52:48.488Z,100436.19
2023-01-20T18:02:55.797Z,100439.48
2023-01-20T18:12:59.720Z,100447.11
2023-01-20T18:23:03.545Z,100457.23
2023-01-20T18:33:07.743Z,100469.23
2023-01-20T18:43:11.821Z,100470.35
2023-01-20T18:53:15.863Z,100485.34
2023-01-20T19:03:20.586Z,100499.91
2023-01-20T19:13:24.905Z,100509.67
2023-01-20T19:23:29.863Z,100514.63
2023-01-20T19:33:36.369Z,100520.17
2023-01-20T19:43:40.740Z,100521.89
2023-01-20T19:53:45.358Z,100525.85
2023-01-20T20:03:50.943Z,100530.03
2023-01-20T20:14:05.545Z,100529.94
2023-01-20T20:24:12.745Z,100546.02
2023-01-20T20:34:19.567Z,100553.48
2023-01-20T20:44:24.609Z,100553.80
2023-01-20T20:54:28.745Z,100571.63
2023-01-20T21:04:32.914Z,100585.61
2023-01-20T21:14:37.353Z,100582.21
2023-01-20T21:24:42.177Z,100579.17
2023-01-20T21:34:46.677Z,100586.66
2023-01-20T21:44:51.260Z,100587.54
2023-01-20T21:54:56.027Z,100580.24
2023-01-20T22:05:14.710Z,100577.83
2023-01-20T22:15:19.255Z,100581.27
2023-01-20T22:25:23.569Z,100567.96
2023-01-20T22:35:27.406Z,100572.00
2023-01-20T22:45:31.373Z,100579.03
2023-01-20T22:55:35.143Z,100593.28
2023-01-20T23:05:40.858Z,100599.70
2023-01-20T23:15:45.149Z,100596.88
2023-01-20T23:25:48.849Z,100589.66
2023-01-20T23:35:52.744Z,100577.23
2023-01-20T23:46:01.297Z,100568.37
2023-01-20T23:56:08.197Z,100578.69
